Wetterdaten: Montag, 20.12.2010
Datum Zeit Temp. A. Feuchte A. Luftdruck Regen Wind Richtung Richtung Sonnenschein UV Solar Windben
20.12.2010 00:00 -0,4 C 91 % 986,9 hPa 0,0 mm 0,0 km/h (0 Bft) O-SO 112 0 min 0 UV-I 0 W/m 1,6 km/h (1 Bft)
20.12.2010 00:10 -0,3 C 91 % 986,9 hPa 0,0 mm 0,0 km/h (0 Bft) O-SO 112 0 min 0 UV-I 0 W/m 1,6 km/h (1 Bft)
20.12.2010 00:20 -0,3 C 91 % 986,9 hPa 0,0 mm 0,0 km/h (0 Bft) N 0 0 min 0 UV-I 0 W/m 0,0 km/h (0 Bft)
20.12.2010 00:30 -0,3 C 91 % 986,9 hPa 0,0 mm 0,0 km/h (0 Bft) O-SO 112 0 min 0 UV-I 0 W/m 3,2 km/h (1 Bft)
20.12.2010 00:40 -0,3 C 91 % 987,0 hPa 0,3 mm 0,0 km/h (0 Bft) O-SO 112 0 min 0 UV-I 0 W/m 1,6 km/h (1 Bft)
20.12.2010 00:50 -0,3 C 91 % 987,2 hPa 0,3 mm 0,0 km/h (0 Bft) N 0 0 min 0 UV-I 0 W/m 0,0 km/h (0 Bft)
20.12.2010 01:00 -0,3 C 91 % 987,5 hPa 0,0 mm 0,0 km/h (0 Bft) O-SO 112 0 min 0 UV-I 0 W/m 1,6 km/h (1 Bft)
20.12.2010 01:10 -0,3 C 91 % 987,7 hPa 0,0 mm 1,6 km/h (1 Bft) O-SO 112 0 min 0 UV-I 0 W/m 8,0 km/h (2 Bft)
20.12.2010 01:20 -0,3 C 91 % 988,3 hPa 0,0 mm 1,6 km/h (1 Bft) N-NW 337 0 min 0 UV-I 0 W/m 8,0 km/h (2 Bft)
20.12.2010 01:30 -0,4 C 91 % 988,7 hPa 0,0 mm 3,2 km/h (1 Bft) W-NW 292 0 min 0 UV-I 0 W/m 8,0 km/h (2 Bft)
20.12.2010 01:40 -0,7 C 90 % 989,2 hPa 0,0 mm 3,2 km/h (1 Bft) NW 315 0 min 0 UV-I 0 W/m 9,7 km/h (2 Bft)
20.12.2010 01:50 -1,3 C 89 % 989,7 hPa 0,0 mm 4,8 km/h (1 Bft) W-NW 292 0 min 0 UV-I 0 W/m 11,3 km/h (2 Bft)
20.12.2010 02:00 -1,9 C 89 % 990,5 hPa 0,0 mm 4,8 km/h (1 Bft) W-NW 292 0 min 0 UV-I 0 W/m 14,5 km/h (3 Bft)
20.12.2010 02:10 -2,6 C 89 % 991,3 hPa 0,0 mm 4,8 km/h (1 Bft) W-NW 292 0 min 0 UV-I 0 W/m 16,1 km/h (3 Bft)
20.12.2010 02:20 -3,1 C 89 % 991,7 hPa 0,0 mm 3,2 km/h (1 Bft) W-NW 292 0 min 0 UV-I 0 W/m 16,1 km/h (3 Bft)
20.12.2010 02:30 -3,4 C 89 % 992,6 hPa 0,3 mm 4,8 km/h (1 Bft) W 270 0 min 0 UV-I 0 W/m 16,1 km/h (3 Bft)
20.12.2010 02:40 -3,8 C 89 % 993,4 hPa 0,0 mm 4,8 km/h (1 Bft) W 270 0 min 0 UV-I 0 W/m 14,5 km/h (3 Bft)
20.12.2010 02:50 -4,0 C 89 % 993,9 hPa 0,0 mm 4,8 km/h (1 Bft) W-NW 292 0 min 0 UV-I 0 W/m 17,7 km/h (3 Bft)
20.12.2010 03:00 -4,2 C 89 % 994,6 hPa 0,0 mm 3,2 km/h (1 Bft) W-NW 292 0 min 0 UV-I 0 W/m 14,5 km/h (3 Bft)
20.12.2010 03:10 -4,3 C 89 % 995,1 hPa 0,0 mm 6,4 km/h (2 Bft) W 270 0 min 0 UV-I 0 W/m 20,9 km/h (4 Bft)
20.12.2010 03:20 -4,4 C 89 % 995,6 hPa 0,0 mm 6,4 km/h (2 Bft) W 270 0 min 0 UV-I 0 W/m 19,3 km/h (3 Bft)
20.12.2010 03:30 -4,5 C 89 % 995,9 hPa 0,0 mm 4,8 km/h (1 Bft) W 270 0 min 0 UV-I 0 W/m 17,7 km/h (3 Bft)
20.12.2010 03:40 -4,5 C 89 % 996,4 hPa 0,0 mm 6,4 km/h (2 Bft) W 270 0 min 0 UV-I 0 W/m 20,9 km/h (4 Bft)
20.12.2010 03:50 -4,5 C 89 % 996,7 hPa 0,0 mm 6,4 km/h (2 Bft) W 270 0 min 0 UV-I 0 W/m 17,7 km/h (3 Bft)
20.12.2010 04:00 -4,6 C 89 % 997,3 hPa 0,0 mm 4,8 km/h (1 Bft) W 270 0 min 0 UV-I 0 W/m 16,1 km/h (3 Bft)
20.12.2010 04:10 -4,6 C 89 % 997,4 hPa 0,0 mm 4,8 km/h (1 Bft) W 270 0 min 0 UV-I 0 W/m 19,3 km/h (3 Bft)
20.12.2010 04:20 -4,6 C 89 % 997,7 hPa 0,0 mm 3,2 km/h (1 Bft) W 270 0 min 0 UV-I 0 W/m 16,1 km/h (3 Bft)
20.12.2010 04:30 -4,7 C 89 % 997,8 hPa 0,0 mm 4,8 km/h (1 Bft) W 270 0 min 0 UV-I 0 W/m 16,1 km/h (3 Bft)
20.12.2010 04:40 -4,7 C 89 % 998,0 hPa 0,0 mm 3,2 km/h (1 Bft) W 270 0 min 0 UV-I 0 W/m 16,1 km/h (3 Bft)
20.12.2010 04:50 -4,8 C 89 % 998,3 hPa 0,0 mm 4,8 km/h (1 Bft) W 270 0 min 0 UV-I 0 W/m 17,7 km/h (3 Bft)
20.12.2010 05:00 -4,8 C 89 % 998,7 hPa 0,0 mm 4,8 km/h (1 Bft) W 270 0 min 0 UV-I 0 W/m 11,3 km/h (2 Bft)
20.12.2010 05:10 -4,8 C 89 % 999,0 hPa 0,0 mm 3,2 km/h (1 Bft) W 270 0 min 0 UV-I 0 W/m 11,3 km/h (2 Bft)
20.12.2010 05:20 -4,8 C 90 % 999,1 hPa 0,0 mm 3,2 km/h (1 Bft) W 270 0 min 0 UV-I 0 W/m 11,3 km/h (2 Bft)
20.12.2010 05:30 -4,8 C 90 % 999,6 hPa 0,0 mm 3,2 km/h (1 Bft) W 270 0 min 0 UV-I 0 W/m 8,0 km/h (2 Bft)
20.12.2010 05:40 -4,8 C 90 % 999,8 hPa 0,0 mm 3,2 km/h (1 Bft) W 270 0 min 0 UV-I 0 W/m 11,3 km/h (2 Bft)
20.12.2010 05:50 -4,7 C 90 % 1000,2 hPa 0,0 mm 3,2 km/h (1 Bft) W 270 0 min 0 UV-I 0 W/m 8,0 km/h (2 Bft)
20.12.2010 06:00 -4,7 C 90 % 1000,4 hPa 0,0 mm 4,8 km/h (1 Bft) W 270 0 min 0 UV-I 0 W/m 16,1 km/h (3 Bft)
20.12.2010 06:10 -4,7 C 90 % 1000,5 hPa 0,0 mm 3,2 km/h (1 Bft) W-SW 247 0 min 0 UV-I 0 W/m 14,5 km/h (3 Bft)
20.12.2010 06:20 -4,7 C 90 % 1000,4 hPa 0,0 mm 6,4 km/h (2 Bft) W-SW 247 0 min 0 UV-I 0 W/m 19,3 km/h (3 Bft)
20.12.2010 06:30 -4,7 C 90 % 1000,5 hPa 0,0 mm 4,8 km/h (1 Bft) W 270 0 min 0 UV-I 0 W/m 11,3 km/h (2 Bft)
20.12.2010 06:40 -4,8 C 89 % 1000,7 hPa 0,0 mm 4,8 km/h (1 Bft) W-SW 247 0 min 0 UV-I 0 W/m 17,7 km/h (3 Bft)
20.12.2010 06:50 -4,8 C 90 % 1000,9 hPa 0,0 mm 3,2 km/h (1 Bft) W-SW 247 0 min 0 UV-I 0 W/m 9,7 km/h (2 Bft)
20.12.2010 07:00 -4,7 C 90 % 1001,1 hPa 0,0 mm 3,2 km/h (1 Bft) W-SW 247 0 min 0 UV-I 0 W/m 12,9 km/h (3 Bft)
20.12.2010 07:10 -4,7 C 90 % 1001,3 hPa 0,0 mm 3,2 km/h (1 Bft) W-SW 247 0 min 0 UV-I 0 W/m 11,3 km/h (2 Bft)
20.12.2010 07:20 -4,6 C 90 % 1001,4 hPa 0,0 mm 4,8 km/h (1 Bft) W-SW 247 0 min 0 UV-I 0 W/m 11,3 km/h (2 Bft)
20.12.2010 07:30 -4,4 C 90 % 1001,5 hPa 0,0 mm 6,4 km/h (2 Bft) W-SW 247 0 min 0 UV-I 0 W/m 16,1 km/h (3 Bft)
20.12.2010 07:40 -4,4 C 90 % 1001,5 hPa 0,0 mm 6,4 km/h (2 Bft) W-SW 247 0 min 0 UV-I 0 W/m 16,1 km/h (3 Bft)
20.12.2010 07:50 -4,3 C 90 % 1001,7 hPa 0,0 mm 4,8 km/h (1 Bft) W-SW 247 0 min 0 UV-I 0 W/m 14,5 km/h (3 Bft)
20.12.2010 08:00 -4,2 C 90 % 1001,9 hPa 0,0 mm 3,7 km/h (1 Bft) W-NW 291 0 min 0 UV-I 0 W/m 9,7 km/h (2 Bft)
20.12.2010 08:10 -4,2 C 90 % 1002,2 hPa 0,0 mm 4,8 km/h (1 Bft) W 270 0 min 0 UV-I 0 W/m 14,5 km/h (3 Bft)
20.12.2010 08:20 -4,2 C 90 % 1002,0 hPa 0,0 mm 3,2 km/h (1 Bft) W-SW 247 0 min 0 UV-I 0 W/m 9,7 km/h (2 Bft)
20.12.2010 08:30 -4,1 C 90 % 1002,2 hPa 0,0 mm 1,6 km/h (1 Bft) W-SW 247 0 min 0 UV-I 0 W/m 8,0 km/h (2 Bft)
20.12.2010 08:40 -4,1 C 90 % 1002,4 hPa 0,0 mm 4,8 km/h (1 Bft) W 270 0 min 0 UV-I 0 W/m 11,3 km/h (2 Bft)
20.12.2010 08:50 -4,1 C 90 % 1002,8 hPa 0,0 mm 3,2 km/h (1 Bft) W 270 0 min 0 UV-I 0 W/m 14,5 km/h (3 Bft)
20.12.2010 09:00 -4,0 C 90 % 1002,5 hPa 0,0 mm 3,2 km/h (1 Bft) W 270 0 min 0 UV-I 7 W/m 12,9 km/h (3 Bft)
20.12.2010 09:10 -3,9 C 90 % 1002,7 hPa 0,0 mm 1,6 km/h (1 Bft) W-SW 247 0 min 0 UV-I 14 W/m 8,0 km/h (2 Bft)
20.12.2010 09:20 -3,9 C 91 % 1002,8 hPa 0,0 mm 1,6 km/h (1 Bft) W-SW 247 0 min 0 UV-I 19 W/m 8,0 km/h (2 Bft)
20.12.2010 09:30 -3,9 C 90 % 1003,0 hPa 0,0 mm 3,2 km/h (1 Bft) W-SW 247 0 min 0 UV-I 21 W/m 6,4 km/h (2 Bft)
20.12.2010 09:40 -3,8 C 90 % 1003,0 hPa 0,0 mm 1,6 km/h (1 Bft) W 270 0 min 0 UV-I 32 W/m 6,4 km/h (2 Bft)
20.12.2010 09:50 -3,8 C 91 % 1003,4 hPa 0,0 mm 1,6 km/h (1 Bft) SW 225 0 min 0 UV-I 40 W/m 4,8 km/h (1 Bft)
20.12.2010 10:00 -3,7 C 91 % 1003,4 hPa 0,0 mm 1,6 km/h (1 Bft) W-SW 247 0 min 0 UV-I 40 W/m 6,4 km/h (2 Bft)
20.12.2010 10:10 -3,6 C 91 % 1003,3 hPa 0,0 mm 1,6 km/h (1 Bft) W-SW 247 0 min 0 UV-I 42 W/m 6,4 km/h (2 Bft)
20.12.2010 10:20 -3,6 C 91 % 1003,4 hPa 0,0 mm 0,0 km/h (0 Bft) W 270 0 min 0 UV-I 44 W/m 4,8 km/h (1 Bft)
20.12.2010 10:30 -3,5 C 91 % 1003,3 hPa 0,0 mm 1,6 km/h (1 Bft) W-SW 247 0 min 0 UV-I 63 W/m 6,4 km/h (2 Bft)
20.12.2010 10:40 -3,4 C 91 % 1003,5 hPa 0,0 mm 1,6 km/h (1 Bft) W 270 0 min 0 UV-I 63 W/m 4,8 km/h (1 Bft)
20.12.2010 10:50 -3,3 C 91 % 1003,5 hPa 0,0 mm 0,0 km/h (0 Bft) W-SW 247 0 min 0 UV-I 67 W/m 4,8 km/h (1 Bft)
20.12.2010 11:00 -3,2 C 91 % 1003,0 hPa 0,0 mm 0,0 km/h (0 Bft) W-SW 247 0 min 0 UV-I 88 W/m 3,2 km/h (1 Bft)
20.12.2010 11:10 -3,2 C 91 % 1003,3 hPa 0,0 mm 0,0 km/h (0 Bft) SW 225 0 min 1 UV-I 104 W/m 3,2 km/h (1 Bft)
20.12.2010 11:20 -3,0 C 91 % 1003,5 hPa 0,0 mm 0,0 km/h (0 Bft) SW 225 0 min 1 UV-I 113 W/m 3,2 km/h (1 Bft)
20.12.2010 11:30 -2,8 C 91 % 1003,3 hPa 0,0 mm 0,0 km/h (0 Bft) SW 225 0 min 1 UV-I 105 W/m 3,2 km/h (1 Bft)
20.12.2010 11:40 -2,7 C 91 % 1003,1 hPa 0,0 mm 0,0 km/h (0 Bft) SW 225 0 min 1 UV-I 114 W/m 3,2 km/h (1 Bft)
20.12.2010 11:50 -2,6 C 91 % 1003,0 hPa 0,0 mm 0,0 km/h (0 Bft) SW 225 0 min 1 UV-I 123 W/m 3,2 km/h (1 Bft)
20.12.2010 12:00 -2,5 C 91 % 1003,1 hPa 0,0 mm 0,0 km/h (0 Bft) SW 225 0 min 1 UV-I 130 W/m 3,2 km/h (1 Bft)
20.12.2010 12:10 -2,4 C 91 % 1003,1 hPa 0,0 mm 0,0 km/h (0 Bft) W-SW 247 0 min 1 UV-I 134 W/m 1,6 km/h (1 Bft)
20.12.2010 12:20 -2,3 C 90 % 1003,0 hPa 0,0 mm 0,0 km/h (0 Bft) W-SW 247 0 min 1 UV-I 130 W/m 3,2 km/h (1 Bft)
20.12.2010 12:30 -2,2 C 90 % 1003,1 hPa 0,0 mm 0,0 km/h (0 Bft) W-NW 292 0 min 1 UV-I 125 W/m 3,2 km/h (1 Bft)
20.12.2010 12:40 -2,2 C 90 % 1003,3 hPa 0,0 mm 0,0 km/h (0 Bft) W-NW 292 0 min 1 UV-I 118 W/m 3,2 km/h (1 Bft)
20.12.2010 12:50 -2,2 C 90 % 1003,5 hPa 0,0 mm 0,0 km/h (0 Bft) W-NW 292 0 min 1 UV-I 109 W/m 1,6 km/h (1 Bft)
20.12.2010 13:00 -2,1 C 90 % 1003,6 hPa 0,0 mm 0,0 km/h (0 Bft) W-NW 292 0 min 1 UV-I 105 W/m 1,6 km/h (1 Bft)
20.12.2010 13:10 -2,1 C 90 % 1003,7 hPa 0,0 mm 0,0 km/h (0 Bft) W-NW 292 0 min 1 UV-I 107 W/m 1,6 km/h (1 Bft)
20.12.2010 13:20 -2,1 C 90 % 1003,8 hPa 0,0 mm 0,0 km/h (0 Bft) W-NW 292 0 min 1 UV-I 113 W/m 1,6 km/h (1 Bft)
20.12.2010 13:30 -2,0 C 90 % 1003,9 hPa 0,0 mm 0,0 km/h (0 Bft) W-NW 292 0 min 1 UV-I 116 W/m 1,6 km/h (1 Bft)
20.12.2010 13:40 -2,0 C 90 % 1004,0 hPa 0,3 mm 0,0 km/h (0 Bft) W-NW 292 0 min 1 UV-I 114 W/m 1,6 km/h (1 Bft)
20.12.2010 13:50 -1,9 C 89 % 1004,0 hPa 0,0 mm 0,0 km/h (0 Bft) W-NW 292 0 min 1 UV-I 111 W/m 1,6 km/h (1 Bft)
20.12.2010 14:00 -1,9 C 89 % 1004,1 hPa 0,0 mm 0,0 km/h (0 Bft) W-NW 292 0 min 0 UV-I 104 W/m 1,6 km/h (1 Bft)
20.12.2010 14:10 -1,9 C 89 % 1004,3 hPa 0,3 mm 0,0 km/h (0 Bft) W-NW 292 0 min 0 UV-I 97 W/m 1,6 km/h (1 Bft)
20.12.2010 14:20 -1,9 C 88 % 1004,4 hPa 0,0 mm 0,0 km/h (0 Bft) N 0 0 min 0 UV-I 91 W/m 0,0 km/h (0 Bft)
20.12.2010 14:30 -1,9 C 88 % 1004,6 hPa 0,3 mm 0,0 km/h (0 Bft) N 0 0 min 0 UV-I 84 W/m 0,0 km/h (0 Bft)
20.12.2010 14:40 -1,9 C 87 % 1004,6 hPa 0,0 mm 0,0 km/h (0 Bft) N 0 0 min 0 UV-I 74 W/m 0,0 km/h (0 Bft)
20.12.2010 14:50 -1,9 C 86 % 1004,8 hPa 0,0 mm 0,0 km/h (0 Bft) N 0 0 min 0 UV-I 70 W/m 0,0 km/h (0 Bft)
20.12.2010 15:00 -2,0 C 85 % 1004,8 hPa 0,0 mm 0,0 km/h (0 Bft) N 0 0 min 0 UV-I 67 W/m 0,0 km/h (0 Bft)
20.12.2010 15:10 -2,1 C 85 % 1005,0 hPa 0,0 mm 0,0 km/h (0 Bft) N 0 0 min 0 UV-I 54 W/m 0,0 km/h (0 Bft)
20.12.2010 15:20 -2,2 C 84 % 1005,1 hPa 0,0 mm 0,0 km/h (0 Bft) N 0 0 min 0 UV-I 49 W/m 0,0 km/h (0 Bft)
20.12.2010 15:30 -2,3 C 83 % 1005,2 hPa 0,0 mm 0,0 km/h (0 Bft) N 0 0 min 0 UV-I 39 W/m 0,0 km/h (0 Bft)
20.12.2010 15:40 -2,6 C 81 % 1005,3 hPa 0,0 mm 0,0 km/h (0 Bft) N 0 0 min 0 UV-I 14 W/m 0,0 km/h (0 Bft)
20.12.2010 15:50 -2,9 C 80 % 1005,5 hPa 0,0 mm 0,0 km/h (0 Bft) N 0 0 min 0 UV-I 19 W/m 0,0 km/h (0 Bft)
20.12.2010 16:00 -3,3 C 79 % 1005,7 hPa 0,0 mm 0,0 km/h (0 Bft) N 0 10 min 0 UV-I 14 W/m 0,0 km/h (0 Bft)
20.12.2010 16:10 -3,7 C 78 % 1005,8 hPa 0,0 mm 0,0 km/h (0 Bft) N 0 0 min 0 UV-I 11 W/m 0,0 km/h (0 Bft)
20.12.2010 16:20 -4,0 C 78 % 1005,9 hPa 0,0 mm 0,0 km/h (0 Bft) N 0 0 min 0 UV-I 5 W/m 0,0 km/h (0 Bft)
20.12.2010 16:30 -4,4 C 78 % 1006,0 hPa 0,0 mm 0,0 km/h (0 Bft) N 0 0 min 0 UV-I 0 W/m 0,0 km/h (0 Bft)
20.12.2010 16:40 -4,8 C 77 % 1006,1 hPa 0,0 mm 0,0 km/h (0 Bft) N 0 0 min 0 UV-I 0 W/m 0,0 km/h (0 Bft)
20.12.2010 16:50 -5,2 C 77 % 1006,2 hPa 0,0 mm 0,0 km/h (0 Bft) N 0 0 min 0 UV-I 0 W/m 0,0 km/h (0 Bft)
20.12.2010 17:00 -5,6 C 77 % 1006,3 hPa 0,0 mm 0,0 km/h (0 Bft) N 0 0 min 0 UV-I 0 W/m 0,0 km/h (0 Bft)
20.12.2010 17:10 -5,9 C 77 % 1006,6 hPa 0,0 mm 0,0 km/h (0 Bft) N 0 0 min 0 UV-I 0 W/m 0,0 km/h (0 Bft)
20.12.2010 17:20 -6,2 C 78 % 1006,7 hPa 0,0 mm 0,0 km/h (0 Bft) N 0 0 min 0 UV-I 0 W/m 0,0 km/h (0 Bft)
20.12.2010 17:30 -6,6 C 78 % 1006,7 hPa 0,0 mm 0,0 km/h (0 Bft) N 0 0 min 0 UV-I 0 W/m 0,0 km/h (0 Bft)
20.12.2010 17:40 -6,8 C 78 % 1006,8 hPa 0,0 mm 0,0 km/h (0 Bft) N 0 0 min 0 UV-I 0 W/m 0,0 km/h (0 Bft)
20.12.2010 17:50 -7,1 C 78 % 1006,8 hPa 0,0 mm 0,0 km/h (0 Bft) N 0 0 min 0 UV-I 0 W/m 0,0 km/h (0 Bft)
20.12.2010 18:00 -7,4 C 78 % 1006,8 hPa 0,0 mm 0,0 km/h (0 Bft) N 0 0 min 0 UV-I 0 W/m 0,0 km/h (0 Bft)
20.12.2010 18:10 -7,6 C 79 % 1007,0 hPa 0,0 mm 0,0 km/h (0 Bft) N 0 0 min 0 UV-I 0 W/m 0,0 km/h (0 Bft)
20.12.2010 18:20 -7,8 C 79 % 1007,0 hPa 0,0 mm 0,0 km/h (0 Bft) N 0 0 min 0 UV-I 0 W/m 0,0 km/h (0 Bft)
20.12.2010 18:30 -8,1 C 79 % 1007,0 hPa 0,0 mm 0,0 km/h (0 Bft) N 0 0 min 0 UV-I 0 W/m 0,0 km/h (0 Bft)
20.12.2010 18:40 -8,3 C 79 % 1007,3 hPa 0,0 mm 0,0 km/h (0 Bft) N 0 0 min 0 UV-I 0 W/m 0,0 km/h (0 Bft)
20.12.2010 18:50 -8,4 C 80 % 1007,3 hPa 0,0 mm 0,0 km/h (0 Bft) N 0 0 min 0 UV-I 0 W/m 0,0 km/h (0 Bft)
20.12.2010 19:00 -8,6 C 80 % 1007,6 hPa 0,0 mm 0,0 km/h (0 Bft) W-NW 292 0 min 0 UV-I 0 W/m 1,6 km/h (1 Bft)
20.12.2010 19:10 -8,8 C 81 % 1007,3 hPa 0,0 mm 0,0 km/h (0 Bft) W-NW 292 0 min 0 UV-I 0 W/m 1,6 km/h (1 Bft)
20.12.2010 19:20 -8,9 C 81 % 1007,3 hPa 0,0 mm 0,0 km/h (0 Bft) N 0 0 min 0 UV-I 0 W/m 0,0 km/h (0 Bft)
20.12.2010 19:30 -9,1 C 81 % 1007,3 hPa 0,0 mm 0,0 km/h (0 Bft) N 0 0 min 0 UV-I 0 W/m 0,0 km/h (0 Bft)
20.12.2010 19:40 -9,2 C 81 % 1007,4 hPa 0,0 mm 0,0 km/h (0 Bft) N 0 0 min 0 UV-I 0 W/m 0,0 km/h (0 Bft)
20.12.2010 19:50 -9,3 C 82 % 1007,3 hPa 0,0 mm 0,0 km/h (0 Bft) W-NW 292 0 min 0 UV-I 0 W/m 1,6 km/h (1 Bft)
20.12.2010 20:00 -9,5 C 82 % 1007,5 hPa 0,0 mm 0,0 km/h (0 Bft) N 0 0 min 0 UV-I 0 W/m 0,0 km/h (0 Bft)
20.12.2010 20:10 -9,7 C 82 % 1007,5 hPa 0,0 mm 0,0 km/h (0 Bft) N 0 0 min 0 UV-I 0 W/m 0,0 km/h (0 Bft)
20.12.2010 20:20 -9,8 C 82 % 1007,7 hPa 0,0 mm 0,0 km/h (0 Bft) N 0 0 min 0 UV-I 0 W/m 0,0 km/h (0 Bft)
20.12.2010 20:30 -9,9 C 82 % 1008,1 hPa 0,0 mm 0,0 km/h (0 Bft) N 0 0 min 0 UV-I 0 W/m 0,0 km/h (0 Bft)
20.12.2010 20:40 -10,1 C 83 % 1008,0 hPa 0,0 mm 0,0 km/h (0 Bft) N 0 0 min 0 UV-I 0 W/m 0,0 km/h (0 Bft)
20.12.2010 20:50 -10,2 C 83 % 1007,9 hPa 0,0 mm 0,0 km/h (0 Bft) N 0 0 min 0 UV-I 0 W/m 0,0 km/h (0 Bft)
20.12.2010 21:00 -10,4 C 83 % 1007,8 hPa 0,0 mm 0,0 km/h (0 Bft) W-NW 292 0 min 0 UV-I 0 W/m 1,6 km/h (1 Bft)
20.12.2010 21:10 -10,6 C 83 % 1007,8 hPa 0,0 mm 0,0 km/h (0 Bft) W-NW 291 0 min 0 UV-I 0 W/m 0,0 km/h (0 Bft)
20.12.2010 21:20 -10,7 C 83 % 1007,8 hPa 0,0 mm 0,0 km/h (0 Bft) W-NW 292 0 min 0 UV-I 0 W/m 0,0 km/h (0 Bft)
20.12.2010 21:30 -10,8 C 83 % 1007,7 hPa 0,0 mm 0,0 km/h (0 Bft) W-NW 292 0 min 0 UV-I 0 W/m 0,0 km/h (0 Bft)
20.12.2010 21:40 -10,9 C 92 % 1007,6 hPa 0,0 mm 0,0 km/h (0 Bft) W-NW 292 0 min 0 UV-I 0 W/m 0,0 km/h (0 Bft)
20.12.2010 21:50 -11,1 C 83 % 1007,6 hPa 0,0 mm 0,0 km/h (0 Bft) W-NW 291 0 min 0 UV-I 0 W/m 0,0 km/h (0 Bft)
20.12.2010 22:00 -11,2 C 83 % 1007,4 hPa 0,0 mm 0,0 km/h (0 Bft) W-NW 292 0 min 0 UV-I 0 W/m 1,6 km/h (1 Bft)
20.12.2010 22:10 -11,3 C 83 % 1007,5 hPa 0,0 mm 0,0 km/h (0 Bft) W-NW 291 0 min 0 UV-I 0 W/m 1,6 km/h (1 Bft)
20.12.2010 22:20 -11,4 C 84 % 1007,3 hPa 0,0 mm 0,0 km/h (0 Bft) W-NW 292 0 min 0 UV-I 0 W/m 1,6 km/h (1 Bft)
20.12.2010 22:30 -11,4 C 84 % 1007,3 hPa 0,0 mm 0,0 km/h (0 Bft) W-NW 291 0 min 0 UV-I 0 W/m 0,0 km/h (0 Bft)
20.12.2010 22:40 -11,5 C 84 % 1007,4 hPa 0,0 mm 0,0 km/h (0 Bft) W-NW 292 0 min 0 UV-I 0 W/m 1,6 km/h (1 Bft)
20.12.2010 22:50 -11,6 C 84 % 1007,2 hPa 0,0 mm 0,0 km/h (0 Bft) W-NW 291 0 min 0 UV-I 0 W/m 0,0 km/h (0 Bft)
20.12.2010 23:00 -11,6 C 84 % 1007,2 hPa 0,0 mm 0,0 km/h (0 Bft) W-NW 292 0 min 0 UV-I 0 W/m 0,0 km/h (0 Bft)
20.12.2010 23:10 -11,6 C 84 % 1007,3 hPa 0,0 mm 0,0 km/h (0 Bft) W-NW 292 0 min 0 UV-I 0 W/m 0,0 km/h (0 Bft)
20.12.2010 23:20 -11,7 C 84 % 1007,4 hPa 0,0 mm 0,0 km/h (0 Bft) W-NW 292 0 min 0 UV-I 0 W/m 0,0 km/h (0 Bft)
20.12.2010 23:30 -11,7 C 85 % 1007,2 hPa 0,0 mm 0,0 km/h (0 Bft) N 0 0 min 0 UV-I 0 W/m 0,0 km/h (0 Bft)
20.12.2010 23:40 -11,8 C 84 % 1007,3 hPa 0,0 mm 0,0 km/h (0 Bft) N 0 0 min 0 UV-I 0 W/m 0,0 km/h (0 Bft)
20.12.2010 23:50 -11,9 C 85 % 1007,3 hPa 0,0 mm 0,0 km/h (0 Bft) N 0 0 min 0 UV-I 0 W/m 0,0 km/h (0 Bft)
_ Min-Zeit 23:50 16:40 00:00 - 00:00 - - - - - 00:20
Minimum _ -12,0 C 77 % 986,9 hPa - 0,0 km/h (0 Bft) - - - - - 0,0 km/h (0 Bft)
_ Max-Zeit 00:00 21:40 20:30 00:40 03:10 - - 16:00 12:00 12:10 03:10
Maximum _ -0,3 C 92 % 1008,1 hPa 0,3 mm 6,4 km/h
W (2 Bft)
- - 10 min 1 UV-I 134 W/m 20,9 km/h
W (4 Bft)
Durchschnitt _ -5,1 C 87 % 1002,0 hPa #1,5 mm 1,5 km/h (1 Bft) W - #10 min. 1 UV-I 73 W/m 5,6 km/h (1 Bft)